createdAt,value
2022-12-27T00:00:27.204Z,0.00
2022-12-27T00:01:28.077Z,0.00
2022-12-27T00:02:29.052Z,0.00
2022-12-27T00:03:29.492Z,0.00
2022-12-27T00:04:30.368Z,0.00
2022-12-27T00:05:31.257Z,0.00
2022-12-27T00:06:32.137Z,0.00
2022-12-27T00:07:33.035Z,0.00
2022-12-27T00:08:33.921Z,0.00
2022-12-27T00:09:34.821Z,0.00
2022-12-27T00:10:35.682Z,0.00
2022-12-27T00:11:36.568Z,0.00
2022-12-27T00:12:37.461Z,0.00
2022-12-27T00:13:38.350Z,0.00
2022-12-27T00:14:39.268Z,0.00
2022-12-27T00:15:40.112Z,0.00
2022-12-27T00:16:41.103Z,0.00
2022-12-27T00:17:41.961Z,0.00
2022-12-27T00:18:42.837Z,0.00
2022-12-27T00:19:43.728Z,0.00
2022-12-27T00:20:44.603Z,0.00
2022-12-27T00:21:45.485Z,0.00
2022-12-27T00:22:46.398Z,0.00
2022-12-27T00:23:47.300Z,0.00
2022-12-27T00:24:48.182Z,0.00
2022-12-27T00:25:49.081Z,0.00
2022-12-27T00:26:49.977Z,0.00
2022-12-27T00:27:50.886Z,0.00
2022-12-27T00:28:51.791Z,0.00
2022-12-27T00:29:52.693Z,0.00
2022-12-27T00:30:53.585Z,0.00
2022-12-27T00:31:54.550Z,0.00
2022-12-27T00:32:55.416Z,0.00
2022-12-27T00:33:56.304Z,0.00
2022-12-27T00:34:57.199Z,0.00
2022-12-27T00:35:58.082Z,0.00
2022-12-27T00:36:58.977Z,0.00
2022-12-27T00:37:59.919Z,0.00
2022-12-27T00:39:00.770Z,0.00
2022-12-27T00:40:01.666Z,0.00
2022-12-27T00:41:02.528Z,0.00
2022-12-27T00:42:03.440Z,0.00
2022-12-27T00:43:04.305Z,0.00
2022-12-27T00:44:05.187Z,0.00
2022-12-27T00:45:06.073Z,0.00
2022-12-27T00:46:06.984Z,0.00
2022-12-27T00:47:07.869Z,0.00
2022-12-27T00:48:08.732Z,0.00
2022-12-27T00:49:09.618Z,0.00
2022-12-27T00:50:10.513Z,0.00
2022-12-27T00:51:11.386Z,0.00
2022-12-27T00:52:12.264Z,0.00
2022-12-27T00:53:13.172Z,0.00
2022-12-27T00:54:14.061Z,0.00
2022-12-27T00:55:14.963Z,0.00
2022-12-27T00:56:15.823Z,0.00
2022-12-27T00:57:16.708Z,0.00
2022-12-27T00:58:17.603Z,0.00
2022-12-27T00:59:18.514Z,0.00
2022-12-27T01:00:19.397Z,0.00
2022-12-27T01:01:20.432Z,0.00
2022-12-27T01:02:20.829Z,0.00
2022-12-27T01:03:21.823Z,0.00
2022-12-27T01:04:22.218Z,0.00
2022-12-27T01:05:23.102Z,0.00
2022-12-27T01:06:23.986Z,0.00
2022-12-27T01:07:24.872Z,0.00
2022-12-27T01:08:25.778Z,0.00
2022-12-27T01:09:26.661Z,0.00
2022-12-27T01:10:27.571Z,0.00
2022-12-27T01:11:28.435Z,0.00
2022-12-27T01:12:29.315Z,0.00
2022-12-27T01:13:30.245Z,0.00
2022-12-27T01:14:31.106Z,0.00
2022-12-27T01:15:31.997Z,0.00
2022-12-27T01:16:33.005Z,0.00
2022-12-27T01:17:33.386Z,0.00
2022-12-27T01:18:34.276Z,0.00
2022-12-27T01:19:35.159Z,0.00
2022-12-27T01:20:36.042Z,0.00
2022-12-27T01:21:36.927Z,0.00
2022-12-27T01:22:37.817Z,0.00
2022-12-27T01:23:38.722Z,0.00
2022-12-27T01:24:39.603Z,0.00
2022-12-27T01:25:40.490Z,0.00
2022-12-27T01:26:41.390Z,0.00
2022-12-27T01:27:42.277Z,0.00
2022-12-27T01:28:43.161Z,0.00
2022-12-27T01:29:44.054Z,0.00
2022-12-27T01:30:44.920Z,0.00
2022-12-27T01:31:45.863Z,0.00
2022-12-27T01:32:46.794Z,0.00
2022-12-27T01:33:47.627Z,0.00
2022-12-27T01:34:48.510Z,0.00
2022-12-27T01:35:49.390Z,0.00
2022-12-27T01:36:50.275Z,0.00
2022-12-27T01:37:51.159Z,0.00
2022-12-27T01:38:52.084Z,0.00
2022-12-27T01:39:52.937Z,0.00
2022-12-27T01:40:53.826Z,0.00
2022-12-27T01:41:54.718Z,0.00
2022-12-27T01:42:55.593Z,0.00
2022-12-27T01:43:56.504Z,0.00
2022-12-27T01:44:57.408Z,0.00
2022-12-27T01:45:58.338Z,0.00
2022-12-27T01:46:59.199Z,0.00
2022-12-27T01:48:00.126Z,0.00
2022-12-27T01:49:04.375Z,0.00
2022-12-27T01:50:01.962Z,0.00
2022-12-27T01:51:02.839Z,0.00
2022-12-27T01:52:03.717Z,0.00
2022-12-27T01:53:04.611Z,0.00
2022-12-27T01:54:05.536Z,0.00
2022-12-27T01:55:06.416Z,0.00
2022-12-27T01:56:07.321Z,0.00
2022-12-27T01:57:08.221Z,0.00
2022-12-27T01:58:09.128Z,0.00
2022-12-27T01:59:10.040Z,0.00
2022-12-27T02:00:10.932Z,0.00
2022-12-27T02:01:12.045Z,0.00
2022-12-27T02:02:12.626Z,0.00
2022-12-27T02:03:13.114Z,0.00
2022-12-27T02:04:13.998Z,0.00
2022-12-27T02:05:14.859Z,0.00
2022-12-27T02:06:15.742Z,0.00
2022-12-27T02:07:16.626Z,0.00
2022-12-27T02:08:17.513Z,0.00
2022-12-27T02:09:18.404Z,0.00
2022-12-27T02:10:19.293Z,0.00
2022-12-27T02:11:20.174Z,0.00
2022-12-27T02:12:21.064Z,0.00
2022-12-27T02:13:21.967Z,0.00
2022-12-27T02:14:27.687Z,0.00
2022-12-27T02:15:24.649Z,0.00
2022-12-27T02:16:24.570Z,0.00
2022-12-27T02:17:25.424Z,0.00
2022-12-27T02:18:26.320Z,0.00
2022-12-27T02:19:27.207Z,0.00
2022-12-27T02:20:28.093Z,0.00
2022-12-27T02:21:28.981Z,0.00
2022-12-27T02:22:29.862Z,0.00
2022-12-27T02:23:36.085Z,0.00
2022-12-27T02:24:32.558Z,0.00
2022-12-27T02:25:32.440Z,0.00
2022-12-27T02:26:33.336Z,0.00
2022-12-27T02:27:34.209Z,0.00
2022-12-27T02:28:35.093Z,0.00
2022-12-27T02:29:35.995Z,0.00
2022-12-27T02:30:36.940Z,0.00
2022-12-27T02:31:37.841Z,0.00
2022-12-27T02:32:38.726Z,0.00
2022-12-27T02:33:39.630Z,0.00
2022-12-27T02:34:40.527Z,0.00
2022-12-27T02:35:41.385Z,0.00
2022-12-27T02:36:42.268Z,0.00
2022-12-27T02:37:43.153Z,0.00
2022-12-27T02:38:44.041Z,0.00
2022-12-27T02:39:44.929Z,0.00
2022-12-27T02:40:45.822Z,0.00
2022-12-27T02:41:46.705Z,0.00
2022-12-27T02:42:47.575Z,0.00
2022-12-27T02:43:48.456Z,0.00
2022-12-27T02:44:49.352Z,0.00
2022-12-27T02:45:50.302Z,0.00
2022-12-27T02:46:51.150Z,0.00
2022-12-27T02:47:52.038Z,0.00
2022-12-27T02:48:52.941Z,0.00
2022-12-27T02:49:53.815Z,0.00
2022-12-27T02:50:54.705Z,0.00
2022-12-27T02:51:55.583Z,0.00
2022-12-27T02:52:56.469Z,0.00
2022-12-27T02:53:57.381Z,0.00
2022-12-27T02:54:58.290Z,0.00
2022-12-27T02:55:59.180Z,0.00
2022-12-27T02:57:00.110Z,0.00
2022-12-27T02:58:00.979Z,0.00
2022-12-27T02:59:01.884Z,0.00
2022-12-27T03:00:02.803Z,0.00
2022-12-27T03:01:03.750Z,0.00
2022-12-27T03:02:04.887Z,0.00
2022-12-27T03:03:05.379Z,0.00
2022-12-27T03:04:06.287Z,0.00
2022-12-27T03:05:07.125Z,0.00
2022-12-27T03:06:08.008Z,0.00
2022-12-27T03:07:08.892Z,0.00
2022-12-27T03:08:09.786Z,0.00
2022-12-27T03:09:10.659Z,0.00
2022-12-27T03:10:11.567Z,0.00
2022-12-27T03:11:12.457Z,0.00
2022-12-27T03:12:13.343Z,0.00
2022-12-27T03:13:14.223Z,0.00
2022-12-27T03:14:15.112Z,0.00
2022-12-27T03:15:16.002Z,0.00
2022-12-27T03:16:16.925Z,0.00
2022-12-27T03:17:17.770Z,0.00
2022-12-27T03:18:18.657Z,0.00
2022-12-27T03:19:19.557Z,0.00
2022-12-27T03:20:20.441Z,0.00
2022-12-27T03:21:21.329Z,0.00
2022-12-27T03:22:22.215Z,0.00
2022-12-27T03:23:23.105Z,0.00
2022-12-27T03:24:24.004Z,0.00
2022-12-27T03:25:24.883Z,0.00
2022-12-27T03:26:25.771Z,0.00
2022-12-27T03:27:26.661Z,0.00
2022-12-27T03:28:27.529Z,0.00
2022-12-27T03:29:28.422Z,0.00
2022-12-27T03:30:29.310Z,0.00
2022-12-27T03:31:30.192Z,0.00
2022-12-27T03:32:31.075Z,0.00
2022-12-27T03:33:31.961Z,0.00
2022-12-27T03:34:32.865Z,0.00
2022-12-27T03:35:33.742Z,0.00
2022-12-27T03:36:34.619Z,0.00
2022-12-27T03:37:35.534Z,0.00
2022-12-27T03:38:36.394Z,0.00
2022-12-27T03:39:37.294Z,0.00
2022-12-27T03:40:38.201Z,0.00
2022-12-27T03:41:39.102Z,0.00
2022-12-27T03:42:40.002Z,0.00
2022-12-27T03:43:40.887Z,0.00
2022-12-27T03:44:41.773Z,0.00
2022-12-27T03:45:42.682Z,0.00
2022-12-27T03:46:43.736Z,0.00
2022-12-27T03:47:44.098Z,0.00
2022-12-27T03:48:44.983Z,0.00
2022-12-27T03:49:45.978Z,0.00
2022-12-27T03:50:46.868Z,0.00
2022-12-27T03:51:47.741Z,0.00
2022-12-27T03:52:48.627Z,0.00
2022-12-27T03:53:49.508Z,0.00
2022-12-27T03:54:50.393Z,0.00
2022-12-27T03:55:51.302Z,0.00
2022-12-27T03:56:52.187Z,0.00
2022-12-27T03:57:53.071Z,0.00
2022-12-27T03:58:53.957Z,0.00
2022-12-27T03:59:54.839Z,0.00
2022-12-27T04:00:55.735Z,0.00
2022-12-27T04:01:56.767Z,0.00
2022-12-27T04:02:57.275Z,0.00
2022-12-27T04:03:57.706Z,0.00
2022-12-27T04:04:58.605Z,0.00
2022-12-27T04:05:59.487Z,0.00
2022-12-27T04:07:00.370Z,0.00
2022-12-27T04:08:01.254Z,0.00
2022-12-27T04:09:02.142Z,0.00
2022-12-27T04:10:03.029Z,0.00
2022-12-27T04:11:03.916Z,0.00
2022-12-27T04:12:04.815Z,0.00
2022-12-27T04:13:05.690Z,0.00
2022-12-27T04:14:06.576Z,0.00
2022-12-27T04:15:07.477Z,0.00
2022-12-27T04:16:08.420Z,0.00
2022-12-27T04:17:09.287Z,0.00
2022-12-27T04:18:10.187Z,0.00
2022-12-27T04:19:11.094Z,0.00
2022-12-27T04:20:12.011Z,0.00
2022-12-27T04:21:12.908Z,0.00
2022-12-27T04:22:13.795Z,0.00
2022-12-27T04:23:14.673Z,0.00
2022-12-27T04:24:15.566Z,0.00
2022-12-27T04:25:16.468Z,0.00
2022-12-27T04:26:17.351Z,0.00
2022-12-27T04:27:18.235Z,0.00
2022-12-27T04:28:19.134Z,0.00
2022-12-27T04:29:20.029Z,0.00
2022-12-27T04:30:20.897Z,0.00
2022-12-27T04:31:21.810Z,0.00
2022-12-27T04:32:22.673Z,0.00
2022-12-27T04:33:23.559Z,0.00
2022-12-27T04:34:24.452Z,0.00
2022-12-27T04:35:25.420Z,0.00
2022-12-27T04:36:26.257Z,0.00
2022-12-27T04:37:27.148Z,0.00
2022-12-27T04:38:28.023Z,0.00
2022-12-27T04:39:28.910Z,0.00
2022-12-27T04:40:29.792Z,0.00
2022-12-27T04:41:30.699Z,0.00
2022-12-27T04:42:31.601Z,0.00
2022-12-27T04:43:32.504Z,0.00
2022-12-27T04:44:33.370Z,0.00
2022-12-27T04:45:34.259Z,0.00
2022-12-27T04:46:35.222Z,0.00
2022-12-27T04:47:36.058Z,0.00
2022-12-27T04:48:36.968Z,0.00
2022-12-27T04:49:37.850Z,0.00
2022-12-27T04:50:38.755Z,0.00
2022-12-27T04:51:39.637Z,0.00
2022-12-27T04:52:40.534Z,0.00
2022-12-27T04:53:41.407Z,0.00
2022-12-27T04:54:42.280Z,0.00
2022-12-27T04:55:43.166Z,0.00
2022-12-27T04:56:44.060Z,0.00
2022-12-27T04:57:44.946Z,0.00
2022-12-27T04:58:45.827Z,0.00
2022-12-27T04:59:46.710Z,0.00
2022-12-27T05:00:47.598Z,0.00
2022-12-27T05:01:48.634Z,0.00
2022-12-27T05:02:49.272Z,0.00
2022-12-27T05:03:49.747Z,0.00
2022-12-27T05:04:50.609Z,0.00
2022-12-27T05:05:51.514Z,0.00
2022-12-27T05:06:52.405Z,0.00
2022-12-27T05:07:53.291Z,0.00
2022-12-27T05:08:54.172Z,0.00
2022-12-27T05:09:55.061Z,0.00
2022-12-27T05:10:55.944Z,0.00
2022-12-27T05:11:56.848Z,0.00
2022-12-27T05:12:57.721Z,0.00
2022-12-27T05:13:58.606Z,0.00
2022-12-27T05:14:59.489Z,0.00
2022-12-27T05:16:00.416Z,0.00
2022-12-27T05:17:01.305Z,0.00
2022-12-27T05:18:02.114Z,0.00
2022-12-27T05:19:02.998Z,0.00
2022-12-27T05:20:03.881Z,0.00
2022-12-27T05:21:04.787Z,0.00
2022-12-27T05:22:05.681Z,0.00
2022-12-27T05:23:06.548Z,0.00
2022-12-27T05:24:07.462Z,0.00
2022-12-27T05:25:08.382Z,0.00
2022-12-27T05:26:09.268Z,0.00
2022-12-27T05:27:10.140Z,0.00
2022-12-27T05:28:11.035Z,0.00
2022-12-27T05:29:11.903Z,0.00
2022-12-27T05:30:12.787Z,0.00
2022-12-27T05:31:13.709Z,0.00
2022-12-27T05:32:14.574Z,0.00
2022-12-27T05:33:15.449Z,0.00
2022-12-27T05:34:16.336Z,0.00
2022-12-27T05:35:17.211Z,0.00
2022-12-27T05:36:18.110Z,0.00
2022-12-27T05:37:18.995Z,0.00
2022-12-27T05:38:19.881Z,0.00
2022-12-27T05:39:20.763Z,0.00
2022-12-27T05:40:21.652Z,0.00
2022-12-27T05:41:22.541Z,0.00
2022-12-27T05:42:23.425Z,0.00
2022-12-27T05:43:24.309Z,0.00
2022-12-27T05:44:25.196Z,0.00
2022-12-27T05:45:26.080Z,0.00
2022-12-27T05:46:26.992Z,0.00
2022-12-27T05:47:27.855Z,0.00
2022-12-27T05:48:28.746Z,0.00
2022-12-27T05:49:29.632Z,0.00
2022-12-27T05:50:30.510Z,0.00
2022-12-27T05:51:31.411Z,0.00
2022-12-27T05:52:36.176Z,0.00
2022-12-27T05:53:34.058Z,0.00
2022-12-27T05:54:33.957Z,0.00
2022-12-27T05:55:34.825Z,0.00
2022-12-27T05:56:35.712Z,0.00
2022-12-27T05:57:36.601Z,0.00
2022-12-27T05:58:37.494Z,0.00
2022-12-27T05:59:38.374Z,0.00
2022-12-27T06:00:39.259Z,0.00
2022-12-27T06:01:40.243Z,0.00
2022-12-27T06:02:41.302Z,0.00
2022-12-27T06:03:41.724Z,0.00
2022-12-27T06:04:42.607Z,0.00
2022-12-27T06:05:43.489Z,0.00
2022-12-27T06:06:44.399Z,0.00
2022-12-27T06:07:45.281Z,0.00
2022-12-27T06:08:46.179Z,0.00
2022-12-27T06:09:47.049Z,0.00
2022-12-27T06:10:47.928Z,0.00
2022-12-27T06:11:48.811Z,0.00
2022-12-27T06:12:49.705Z,0.00
2022-12-27T06:13:50.589Z,0.00
2022-12-27T06:14:51.473Z,0.00
2022-12-27T06:15:52.356Z,0.00
2022-12-27T06:16:53.322Z,0.00
2022-12-27T06:17:54.175Z,0.00
2022-12-27T06:18:55.074Z,0.00
2022-12-27T06:19:57.386Z,0.00
2022-12-27T06:20:56.849Z,0.00
2022-12-27T06:21:57.747Z,0.00
2022-12-27T06:22:58.623Z,0.00
2022-12-27T06:23:59.507Z,0.00
2022-12-27T06:25:00.400Z,0.00
2022-12-27T06:26:01.276Z,0.00
2022-12-27T06:27:02.162Z,0.00
2022-12-27T06:28:03.072Z,0.00
2022-12-27T06:29:03.951Z,0.00
2022-12-27T06:30:04.834Z,0.00
2022-12-27T06:31:05.719Z,0.00
2022-12-27T06:32:06.686Z,0.00
2022-12-27T06:33:07.529Z,0.00
2022-12-27T06:34:08.410Z,0.00
2022-12-27T06:35:09.296Z,0.00
2022-12-27T06:36:10.178Z,0.00
2022-12-27T06:37:11.101Z,0.00
2022-12-27T06:38:11.959Z,0.00
2022-12-27T06:39:12.842Z,0.00
2022-12-27T06:40:13.727Z,0.00
2022-12-27T06:41:14.588Z,1.00
2022-12-27T06:42:15.441Z,0.00
2022-12-27T06:43:16.346Z,0.00
2022-12-27T06:44:17.232Z,0.00
2022-12-27T06:45:18.111Z,0.00
2022-12-27T06:46:18.996Z,1.00
2022-12-27T06:47:19.800Z,1.00
2022-12-27T06:48:20.718Z,0.00
2022-12-27T06:49:21.596Z,0.00
2022-12-27T06:50:22.436Z,2.00
2022-12-27T06:51:23.270Z,1.00
2022-12-27T06:52:24.174Z,0.00
2022-12-27T06:53:25.041Z,2.00
2022-12-27T06:54:25.833Z,1.00
2022-12-27T06:55:26.665Z,1.00
2022-12-27T06:56:27.493Z,1.00
2022-12-27T06:57:28.335Z,3.00
2022-12-27T06:58:29.167Z,3.00
2022-12-27T06:59:30.004Z,3.00
2022-12-27T07:00:30.945Z,1.00
2022-12-27T07:01:31.951Z,1.00
2022-12-27T07:02:32.408Z,3.00
2022-12-27T07:03:33.288Z,3.00
2022-12-27T07:04:34.118Z,5.00
2022-12-27T07:05:34.955Z,6.00
2022-12-27T07:06:35.781Z,5.00
2022-12-27T07:07:36.637Z,2.00
2022-12-27T07:08:37.453Z,2.00
2022-12-27T07:09:38.284Z,6.00
2022-12-27T07:10:39.119Z,7.00
2022-12-27T07:11:39.944Z,8.00
2022-12-27T07:12:40.784Z,11.00
2022-12-27T07:13:41.620Z,16.00
2022-12-27T07:14:42.441Z,15.00
2022-12-27T07:15:43.265Z,16.00
2022-12-27T07:16:44.177Z,20.00
2022-12-27T07:17:44.988Z,14.00
2022-12-27T07:18:45.850Z,11.00
2022-12-27T07:19:46.646Z,8.00
2022-12-27T07:20:47.476Z,13.00
2022-12-27T07:21:48.309Z,12.00
2022-12-27T07:22:49.155Z,12.00
2022-12-27T07:23:49.973Z,16.00
2022-12-27T07:24:50.796Z,21.00
2022-12-27T07:25:51.626Z,21.00
2022-12-27T07:26:52.457Z,18.00
2022-12-27T07:27:53.285Z,19.00
2022-12-27T07:28:54.125Z,15.00
2022-12-27T07:29:54.955Z,13.00
2022-12-27T07:30:55.788Z,12.00
2022-12-27T07:31:56.644Z,11.00
2022-12-27T07:32:57.450Z,11.00
2022-12-27T07:33:58.299Z,9.00
2022-12-27T07:34:59.109Z,9.00
2022-12-27T07:35:59.943Z,8.00
2022-12-27T07:37:00.764Z,9.00
2022-12-27T07:38:01.621Z,8.00
2022-12-27T07:39:02.447Z,8.00
2022-12-27T07:40:03.283Z,11.00
2022-12-27T07:41:04.110Z,13.00
2022-12-27T07:42:08.413Z,13.00
2022-12-27T07:43:05.571Z,10.00
2022-12-27T07:44:06.413Z,11.00
2022-12-27T07:45:07.241Z,10.00
2022-12-27T07:46:08.114Z,4.00
2022-12-27T07:47:08.891Z,6.00
2022-12-27T07:48:09.722Z,6.00
2022-12-27T07:49:17.165Z,4.00
2022-12-27T07:50:12.274Z,3.00
2022-12-27T07:51:12.222Z,9.00
2022-12-27T07:52:13.045Z,13.00
2022-12-27T07:53:13.901Z,8.00
2022-12-27T07:54:14.719Z,10.00
2022-12-27T07:55:15.551Z,11.00
2022-12-27T07:56:21.691Z,11.00
2022-12-27T07:57:18.099Z,9.00
2022-12-27T07:58:17.933Z,10.00
2022-12-27T07:59:18.767Z,8.00
2022-12-27T08:00:19.603Z,8.00
2022-12-27T08:01:20.571Z,12.00
2022-12-27T08:02:21.500Z,10.00
2022-12-27T08:03:22.429Z,12.00
2022-12-27T08:04:23.227Z,17.00
2022-12-27T08:05:27.586Z,21.00
2022-12-27T08:06:24.844Z,26.00
2022-12-27T08:07:25.670Z,25.00
2022-12-27T08:08:26.521Z,20.00
2022-12-27T08:09:27.341Z,23.00
2022-12-27T08:10:28.263Z,18.00
2022-12-27T08:11:29.082Z,22.00
2022-12-27T08:12:29.909Z,25.00
2022-12-27T08:13:30.742Z,27.00
2022-12-27T08:14:31.583Z,28.00
2022-12-27T08:15:32.416Z,29.00
2022-12-27T08:16:33.276Z,31.00
2022-12-27T08:17:34.090Z,31.00
2022-12-27T08:18:34.914Z,33.00
2022-12-27T08:19:35.804Z,38.00
2022-12-27T08:20:36.616Z,42.00
2022-12-27T08:21:37.431Z,69.00
2022-12-27T08:22:38.260Z,64.00
2022-12-27T08:23:39.109Z,65.00
2022-12-27T08:24:39.942Z,76.00
2022-12-27T08:25:46.799Z,90.00
2022-12-27T08:26:42.484Z,91.00
2022-12-27T08:27:42.308Z,89.00
2022-12-27T08:28:43.143Z,63.00
2022-12-27T08:29:43.984Z,58.00
2022-12-27T08:30:44.878Z,49.00
2022-12-27T08:31:45.659Z,51.00
2022-12-27T08:32:46.489Z,50.00
2022-12-27T08:33:47.319Z,51.00
2022-12-27T08:34:48.155Z,53.00
2022-12-27T08:35:54.011Z,44.00
2022-12-27T08:36:55.542Z,43.00
2022-12-27T08:37:51.422Z,45.00
2022-12-27T08:38:51.274Z,40.00
2022-12-27T08:39:52.085Z,38.00
2022-12-27T08:40:52.916Z,40.00
2022-12-27T08:41:53.770Z,43.00
2022-12-27T08:42:54.574Z,46.00
2022-12-27T08:43:55.405Z,43.00
2022-12-27T08:44:56.244Z,37.00
2022-12-27T08:45:57.105Z,36.00
2022-12-27T08:46:57.903Z,40.00
2022-12-27T08:47:58.778Z,43.00
2022-12-27T08:48:59.555Z,49.00
2022-12-27T08:50:00.404Z,45.00
2022-12-27T08:51:01.234Z,46.00
2022-12-27T08:52:02.064Z,50.00
2022-12-27T08:53:02.893Z,55.00
2022-12-27T08:54:03.750Z,49.00
2022-12-27T08:55:04.557Z,46.00
2022-12-27T08:56:05.378Z,46.00
2022-12-27T08:57:06.223Z,48.00
2022-12-27T08:58:15.457Z,52.00
2022-12-27T08:59:08.751Z,52.00
2022-12-27T09:00:08.589Z,55.00
2022-12-27T09:01:09.619Z,51.00
2022-12-27T09:02:10.051Z,56.00
2022-12-27T09:03:10.958Z,64.00
2022-12-27T09:04:11.742Z,67.00
2022-12-27T09:05:12.583Z,70.00
2022-12-27T09:06:13.414Z,68.00
2022-12-27T09:07:14.243Z,62.00
2022-12-27T09:08:15.071Z,52.00
2022-12-27T09:09:15.924Z,48.00
2022-12-27T09:10:16.739Z,56.00
2022-12-27T09:11:17.592Z,69.00
2022-12-27T09:12:18.391Z,102.00
2022-12-27T09:13:19.219Z,113.00
2022-12-27T09:14:20.053Z,126.00
2022-12-27T09:15:20.892Z,116.00
2022-12-27T09:16:21.836Z,96.00
2022-12-27T09:17:22.615Z,89.00
2022-12-27T09:18:23.448Z,86.00
2022-12-27T09:19:24.279Z,87.00
2022-12-27T09:20:25.137Z,76.00
2022-12-27T09:21:25.952Z,92.00
2022-12-27T09:22:26.768Z,86.00
2022-12-27T09:23:27.601Z,81.00
2022-12-27T09:24:28.519Z,78.00
2022-12-27T09:25:29.347Z,52.00
2022-12-27T09:26:30.166Z,42.00
2022-12-27T09:27:30.998Z,51.00
2022-12-27T09:28:31.831Z,60.00
2022-12-27T09:29:32.660Z,63.00
2022-12-27T09:30:33.499Z,59.00
2022-12-27T09:31:34.420Z,46.00
2022-12-27T09:32:35.208Z,41.00
2022-12-27T09:33:36.045Z,47.00
2022-12-27T09:34:36.877Z,52.00
2022-12-27T09:35:38.715Z,56.00
2022-12-27T09:36:38.631Z,69.00
2022-12-27T09:37:39.427Z,81.00
2022-12-27T09:38:40.258Z,86.00
2022-12-27T09:39:41.103Z,75.00
2022-12-27T09:40:41.913Z,77.00
2022-12-27T09:42:43.775Z,79.00
2022-12-27T09:42:56.152Z,66.00
2022-12-27T09:43:45.171Z,63.00
2022-12-27T09:44:45.004Z,57.00
2022-12-27T09:45:45.842Z,58.00
2022-12-27T09:46:46.722Z,71.00
2022-12-27T09:47:47.519Z,81.00
2022-12-27T09:48:48.345Z,84.00
2022-12-27T09:49:49.180Z,78.00
2022-12-27T09:50:50.029Z,70.00
2022-12-27T09:51:50.847Z,77.00
2022-12-27T09:52:51.679Z,81.00
2022-12-27T09:53:52.508Z,74.00
2022-12-27T09:54:54.310Z,70.00
2022-12-27T09:55:54.021Z,66.00
2022-12-27T09:57:18.776Z,60.00
2022-12-27T09:57:56.568Z,58.00
2022-12-27T09:58:56.396Z,53.00
2022-12-27T09:59:57.227Z,49.00
2022-12-27T10:00:58.070Z,49.00
2022-12-27T10:01:59.026Z,55.00
2022-12-27T10:02:59.849Z,60.00
2022-12-27T10:04:00.694Z,65.00
2022-12-27T10:05:19.641Z,67.00
2022-12-27T10:06:03.267Z,68.00
2022-12-27T10:07:03.056Z,66.00
2022-12-27T10:08:03.884Z,69.00
2022-12-27T10:09:04.716Z,71.00
2022-12-27T10:10:05.574Z,67.00
2022-12-27T10:11:06.370Z,64.00
2022-12-27T10:12:07.201Z,63.00
2022-12-27T10:13:08.030Z,67.00
2022-12-27T10:14:08.860Z,74.00
2022-12-27T10:15:09.709Z,82.00
2022-12-27T10:16:10.589Z,82.00
2022-12-27T10:17:11.380Z,84.00
2022-12-27T10:18:12.214Z,78.00
2022-12-27T10:19:13.045Z,83.00
2022-12-27T10:20:13.876Z,77.00
2022-12-27T10:21:14.719Z,78.00
2022-12-27T10:22:15.555Z,69.00
2022-12-27T10:23:16.376Z,55.00
2022-12-27T10:24:17.206Z,50.00
2022-12-27T10:25:18.063Z,75.00
2022-12-27T10:26:18.610Z,66.00
2022-12-27T10:27:19.453Z,84.00
2022-12-27T10:28:20.271Z,111.00
2022-12-27T10:29:21.106Z,143.00
2022-12-27T10:30:21.935Z,184.00
2022-12-27T10:31:22.878Z,268.00
2022-12-27T10:32:23.702Z,301.00
2022-12-27T10:33:24.521Z,190.00
2022-12-27T10:34:25.352Z,154.00
2022-12-27T10:35:26.198Z,131.00
2022-12-27T10:36:27.029Z,126.00
2022-12-27T10:37:27.857Z,109.00
2022-12-27T10:38:28.688Z,223.00
2022-12-27T10:39:29.522Z,172.00
2022-12-27T10:40:34.346Z,155.00
2022-12-27T10:41:30.966Z,141.00
2022-12-27T10:42:31.785Z,141.00
2022-12-27T10:43:32.609Z,122.00
2022-12-27T10:44:33.448Z,107.00
2022-12-27T10:45:34.286Z,85.00
2022-12-27T10:46:35.158Z,64.00
2022-12-27T10:47:36.017Z,61.00
2022-12-27T10:49:10.940Z,68.00
2022-12-27T10:49:38.525Z,82.00
2022-12-27T10:50:38.355Z,88.00
2022-12-27T10:51:39.201Z,94.00
2022-12-27T10:52:40.030Z,102.00
2022-12-27T10:53:40.871Z,109.00
2022-12-27T10:54:41.695Z,139.00
2022-12-27T10:55:42.543Z,134.00
2022-12-27T10:56:43.375Z,131.00
2022-12-27T10:57:44.185Z,118.00
2022-12-27T10:58:45.029Z,107.00
2022-12-27T10:59:45.836Z,99.00
2022-12-27T11:00:46.708Z,97.00
2022-12-27T11:01:47.695Z,99.00
2022-12-27T11:02:48.652Z,107.00
2022-12-27T11:03:49.480Z,106.00
2022-12-27T11:04:50.311Z,107.00
2022-12-27T11:05:51.148Z,116.00
2022-12-27T11:06:52.005Z,113.00
2022-12-27T11:07:52.819Z,117.00
2022-12-27T11:08:53.655Z,118.00
2022-12-27T11:09:54.480Z,128.00
2022-12-27T11:10:55.329Z,134.00
2022-12-27T11:11:56.150Z,111.00
2022-12-27T11:12:56.984Z,101.00
2022-12-27T11:13:57.813Z,94.00
2022-12-27T11:14:58.652Z,98.00
2022-12-27T11:15:59.523Z,104.00
2022-12-27T11:17:00.315Z,114.00
2022-12-27T11:18:01.157Z,162.00
2022-12-27T11:19:01.983Z,215.00
2022-12-27T11:20:02.803Z,205.00
2022-12-27T11:21:03.642Z,239.00
2022-12-27T11:22:04.479Z,237.00
2022-12-27T11:23:05.328Z,224.00
2022-12-27T11:24:06.151Z,211.00
2022-12-27T11:25:06.970Z,164.00
2022-12-27T11:26:07.816Z,138.00
2022-12-27T11:27:08.638Z,133.00
2022-12-27T11:28:09.467Z,192.00
2022-12-27T11:29:10.299Z,139.00
2022-12-27T11:30:11.119Z,80.00
2022-12-27T11:31:12.122Z,269.00
2022-12-27T11:32:12.940Z,129.00
2022-12-27T11:33:13.778Z,177.00
2022-12-27T11:34:14.603Z,263.00
2022-12-27T11:35:15.432Z,229.00
2022-12-27T11:36:16.267Z,159.00
2022-12-27T11:37:17.108Z,288.00
2022-12-27T11:38:17.936Z,222.00
2022-12-27T11:39:18.767Z,95.00
2022-12-27T11:40:19.597Z,365.00
2022-12-27T11:41:26.097Z,242.00
2022-12-27T11:42:22.158Z,227.00
2022-12-27T11:43:21.985Z,245.00
2022-12-27T11:44:22.819Z,157.00
2022-12-27T11:45:23.651Z,263.00
2022-12-27T11:46:24.522Z,173.00
2022-12-27T11:47:25.338Z,164.00
2022-12-27T11:48:26.148Z,130.00
2022-12-27T11:49:26.984Z,155.00
2022-12-27T11:50:27.817Z,63.00
2022-12-27T11:51:28.641Z,229.00
2022-12-27T11:52:29.480Z,133.00
2022-12-27T11:53:30.315Z,156.00
2022-12-27T11:54:31.151Z,157.00
2022-12-27T11:55:31.972Z,183.00
2022-12-27T11:56:32.828Z,131.00
2022-12-27T11:57:33.654Z,151.00
2022-12-27T11:58:34.462Z,137.00
2022-12-27T11:59:35.291Z,120.00
2022-12-27T12:00:36.123Z,228.00
2022-12-27T12:01:37.061Z,134.00
2022-12-27T12:02:38.003Z,225.00
2022-12-27T12:03:38.832Z,192.00
2022-12-27T12:04:39.640Z,199.00
2022-12-27T12:05:40.494Z,119.00
2022-12-27T12:06:41.323Z,271.00
2022-12-27T12:07:42.173Z,107.00
2022-12-27T12:08:42.992Z,300.00
2022-12-27T12:09:43.827Z,240.00
2022-12-27T12:10:44.656Z,212.00
2022-12-27T12:11:48.614Z,248.00
2022-12-27T12:12:47.219Z,195.00
2022-12-27T12:13:47.058Z,172.00
2022-12-27T12:14:47.887Z,172.00
2022-12-27T12:15:48.711Z,139.00
2022-12-27T12:16:49.572Z,198.00
2022-12-27T12:17:50.399Z,198.00
2022-12-27T12:18:51.233Z,203.00
2022-12-27T12:19:52.062Z,132.00
2022-12-27T12:20:52.898Z,211.00
2022-12-27T12:21:53.722Z,138.00
2022-12-27T12:22:54.558Z,202.00
2022-12-27T12:23:55.389Z,111.00
2022-12-27T12:24:56.222Z,136.00
2022-12-27T12:25:57.054Z,126.00
2022-12-27T12:26:57.910Z,134.00
2022-12-27T12:27:58.740Z,125.00
2022-12-27T12:29:00.566Z,146.00
2022-12-27T12:30:00.237Z,127.00
2022-12-27T12:31:01.058Z,66.00
2022-12-27T12:32:01.972Z,163.00
2022-12-27T12:33:02.778Z,174.00
2022-12-27T12:34:03.608Z,130.00
2022-12-27T12:35:04.443Z,138.00
2022-12-27T12:36:05.272Z,180.00
2022-12-27T12:37:06.110Z,89.00
2022-12-27T12:38:06.938Z,168.00
2022-12-27T12:39:07.779Z,193.00
2022-12-27T12:40:08.627Z,89.00
2022-12-27T12:41:09.430Z,320.00
2022-12-27T12:42:10.277Z,81.00
2022-12-27T12:43:11.108Z,254.00
2022-12-27T12:44:11.921Z,73.00
2022-12-27T12:45:12.751Z,242.00
2022-12-27T12:46:13.637Z,128.00
2022-12-27T12:47:14.535Z,82.00
2022-12-27T12:48:15.376Z,242.00
2022-12-27T12:49:16.209Z,241.00
2022-12-27T12:50:17.048Z,112.00
2022-12-27T12:51:17.870Z,148.00
2022-12-27T12:52:18.704Z,185.00
2022-12-27T12:53:19.545Z,121.00
2022-12-27T12:54:20.368Z,240.00
2022-12-27T12:55:21.200Z,145.00
2022-12-27T12:56:22.028Z,136.00
2022-12-27T12:57:22.876Z,119.00
2022-12-27T12:58:23.698Z,155.00
2022-12-27T12:59:24.531Z,176.00
2022-12-27T13:00:25.360Z,87.00
2022-12-27T13:01:26.269Z,116.00
2022-12-27T13:02:27.386Z,176.00
2022-12-27T13:03:27.820Z,117.00
2022-12-27T13:04:28.615Z,197.00
2022-12-27T13:05:29.442Z,223.00
2022-12-27T13:06:30.274Z,180.00
2022-12-27T13:07:36.097Z,126.00
2022-12-27T13:08:32.829Z,160.00
2022-12-27T13:09:32.655Z,142.00
2022-12-27T13:10:33.491Z,191.00
2022-12-27T13:11:34.318Z,225.00
2022-12-27T13:12:35.167Z,193.00
2022-12-27T13:13:35.999Z,125.00